KBFF/BFF METAR and TAF weather

Enter ICAO airport designator
Station Type Date Time Source
KBFF METAR 2021/09/16 20:53 UTC NOAA

KBFF 162053Z AUTO 11008KT 10SM CLR 34/00 A2975 RMK AO2 SLP025 T03390000 56017


Station Type Date Time Source
KBFF Decoded METAR 2021/09/16 20:53 UTC NOAA

SCOTTSBLUFF HEILIG FIELD, NE, United States (KBFF) 41-52N 103-36W 1203M
Sep 16, 2021 - 04:53 PM EDT / 2021.09.16 2053 UTC
Wind: from the ESE (110 degrees) at 9 MPH (8 KT):0
Visibility: 10 mile(s):0
Sky conditions: clear
Temperature: 93.0 F (33.9 C)
Dew Point: 32.0 F (0.0 C)
Relative Humidity: 11%
Pressure (altimeter): 29.75 in. Hg (1007 hPa)
Pressure tendency: 0.05 inches (1.7 hPa) lower than three hours ago
ob: KBFF 162053Z AUTO 11008KT 10SM CLR 34/00 A2975 RMK AO2 SLP025 T03390000 56017
cycle: 21

Station Type Date Time Source
KBFF TAF 2021/09/16 18:34 UTC NOAA

TAF KBFF 161732Z 1618/1718 25010KT P6SM SKC
FM162100 28011KT P6SM OVC150
FM170300 36018G25KT P6SM BKN150
FM171000 02010KT P6SM BKN050

Example: see airport list